createdAt,value
2023-01-25T00:00:39.390Z,102573.00
2023-01-25T00:05:43.486Z,102574.75
2023-01-25T00:10:46.237Z,102571.25
2023-01-25T00:15:48.978Z,102576.53
2023-01-25T00:20:53.117Z,102551.91
2023-01-25T00:25:58.854Z,102543.06
2023-01-25T00:31:01.940Z,102538.66
2023-01-25T00:36:34.527Z,102527.19
2023-01-25T00:41:37.312Z,102521.09
2023-01-25T00:46:40.591Z,102525.50
2023-01-25T00:51:44.797Z,102524.59
2023-01-25T00:56:47.999Z,102521.06
2023-01-25T01:01:51.617Z,102521.88
2023-01-25T01:06:56.210Z,102512.22
2023-01-25T01:11:59.005Z,102509.63
2023-01-25T01:17:01.764Z,102505.19
2023-01-25T01:22:06.013Z,102513.16
2023-01-25T01:27:08.825Z,102518.47
2023-01-25T01:32:11.744Z,102511.38
2023-01-25T01:37:15.975Z,102511.38
2023-01-25T01:42:18.816Z,102514.00
2023-01-25T01:47:26.551Z,102522.81
2023-01-25T01:52:38.474Z,102517.50
2023-01-25T01:57:45.760Z,102516.63
2023-01-25T02:02:51.769Z,102512.25
2023-01-25T02:07:58.401Z,102504.41
2023-01-25T02:13:01.295Z,102515.88
2023-01-25T02:18:04.573Z,102506.19
2023-01-25T02:30:10.457Z,102499.09
2023-01-25T02:35:20.270Z,102485.88
2023-01-25T02:40:23.028Z,102483.22
2023-01-25T02:45:31.220Z,102484.97
2023-01-25T02:50:33.935Z,102479.66
2023-01-25T02:55:37.228Z,102477.03
2023-01-25T03:00:41.358Z,102466.44
2023-01-25T03:05:45.054Z,102461.97
2023-01-25T03:10:47.894Z,102458.47
2023-01-25T03:15:52.327Z,102449.69
2023-01-25T03:20:55.363Z,102443.59
2023-01-25T03:26:05.928Z,102430.63
2023-01-25T03:31:12.898Z,102423.53
2023-01-25T03:36:15.785Z,102411.16
2023-01-25T03:41:18.613Z,102403.13
2023-01-25T03:46:23.837Z,102404.94
2023-01-25T03:51:26.734Z,102397.91
2023-01-25T03:56:29.670Z,102411.97
2023-01-25T04:01:43.636Z,102397.88
2023-01-25T04:06:46.591Z,102387.44
2023-01-25T04:11:50.613Z,102392.69
2023-01-25T04:16:54.922Z,102391.88
2023-01-25T04:22:20.278Z,102383.09
2023-01-25T04:27:25.117Z,102381.31
2023-01-25T04:32:39.162Z,102381.28
2023-01-25T04:37:55.539Z,102382.97
2023-01-25T04:43:00.548Z,102375.03
2023-01-25T04:48:09.842Z,102364.56
2023-01-25T04:53:15.191Z,102365.41
2023-01-25T04:58:18.134Z,102369.78
2023-01-25T05:03:22.710Z,102367.94
2023-01-25T05:08:26.060Z,102360.94
2023-01-25T05:13:32.698Z,102357.38
2023-01-25T05:18:49.465Z,102360.03
2023-01-25T05:24:12.564Z,102357.34
2023-01-25T05:29:15.449Z,102349.44
2023-01-25T05:34:28.144Z,102355.63
2023-01-25T05:39:31.427Z,102345.91
2023-01-25T05:44:34.312Z,102354.84
2023-01-25T05:49:38.379Z,102349.59
2023-01-25T05:54:42.551Z,102344.34
2023-01-25T05:59:47.827Z,102350.44
2023-01-25T06:04:55.688Z,102338.19
2023-01-25T06:09:58.830Z,102341.78
2023-01-25T06:15:01.844Z,102327.75
2023-01-25T06:20:07.702Z,102335.53
2023-01-25T06:25:17.342Z,102319.63
2023-01-25T06:30:20.088Z,102333.69
2023-01-25T06:35:24.150Z,102328.31
2023-01-25T06:40:28.165Z,102328.38
2023-01-25T06:45:30.833Z,102334.53
2023-01-25T06:50:34.867Z,102331.00
2023-01-25T06:55:37.596Z,102333.63
2023-01-25T07:00:40.380Z,102331.13
2023-01-25T07:05:44.521Z,102337.31
2023-01-25T07:10:54.632Z,102335.53
2023-01-25T07:15:59.076Z,102334.59
2023-01-25T07:21:07.661Z,102323.13
2023-01-25T07:26:17.480Z,102316.06
2023-01-25T07:31:21.409Z,102322.25
2023-01-25T07:36:26.257Z,102309.06
2023-01-25T07:41:29.055Z,102311.63
2023-01-25T07:46:31.928Z,102311.66
2023-01-25T07:51:36.341Z,102315.34
2023-01-25T07:56:40.569Z,102305.41
2023-01-25T08:01:43.583Z,102302.53
2023-01-25T08:06:47.846Z,102302.56
2023-01-25T08:11:50.592Z,102298.03
2023-01-25T08:16:53.346Z,102298.19
2023-01-25T08:21:57.587Z,102299.97
2023-01-25T08:27:00.542Z,102291.41
2023-01-25T08:32:04.481Z,102287.97
2023-01-25T08:37:08.687Z,102288.88
2023-01-25T08:42:11.428Z,102280.03
2023-01-25T08:47:14.196Z,102284.41
2023-01-25T08:52:18.548Z,102280.97
2023-01-25T08:57:21.460Z,102265.06
2023-01-25T09:02:24.871Z,102269.31
2023-01-25T09:07:32.273Z,102255.16
2023-01-25T09:12:35.603Z,102261.25
2023-01-25T09:17:39.079Z,102247.16
2023-01-25T09:22:43.270Z,102247.25
2023-01-25T09:27:46.133Z,102261.56
2023-01-25T09:32:50.607Z,102247.47
2023-01-25T09:37:54.910Z,102235.88
2023-01-25T09:43:05.139Z,102244.66
2023-01-25T09:48:19.811Z,102230.81
2023-01-25T09:53:33.115Z,102230.84
2023-01-25T09:58:39.150Z,102218.38
2023-01-25T10:03:48.954Z,102217.47
2023-01-25T10:09:01.636Z,102213.03
2023-01-25T10:14:13.593Z,102207.72
2023-01-25T10:19:23.972Z,102208.59
2023-01-25T10:24:39.585Z,102198.22
2023-01-25T10:29:42.476Z,102194.72
2023-01-25T10:34:56.284Z,102185.88
2023-01-25T10:40:05.097Z,102170.09
2023-01-25T10:45:13.312Z,102163.84
2023-01-25T10:50:45.059Z,102170.00
2023-01-25T10:55:59.224Z,102166.44
2023-01-25T11:01:02.846Z,102152.34
2023-01-25T11:06:06.914Z,102145.34
2023-01-25T11:11:32.121Z,102135.03
2023-01-25T11:16:38.347Z,102130.66
2023-01-25T11:21:52.776Z,102118.31
2023-01-25T11:27:15.327Z,102104.13
2023-01-25T11:32:22.451Z,102099.97
2023-01-25T11:37:41.731Z,102099.00
2023-01-25T11:42:58.348Z,102080.53
2023-01-25T11:48:18.023Z,102073.50
2023-01-25T11:53:45.829Z,102052.28
2023-01-25T11:59:05.858Z,102035.56
2023-01-25T12:04:44.173Z,102026.91
2023-01-25T12:09:57.413Z,102017.09
2023-01-25T12:15:19.292Z,102014.44
2023-01-25T12:20:35.171Z,102015.44
2023-01-25T12:25:52.418Z,101990.97
2023-01-25T12:31:00.116Z,101979.69
2023-01-25T12:36:10.364Z,101966.69
2023-01-25T12:41:22.922Z,101954.16
2023-01-25T12:46:30.704Z,101941.97
2023-01-25T12:51:37.340Z,101918.88
2023-01-25T12:56:48.026Z,101918.13
2023-01-25T13:01:58.389Z,101905.84
2023-01-25T13:07:08.556Z,101886.53
2023-01-25T13:12:12.841Z,101885.56
2023-01-25T13:17:26.259Z,101887.25
2023-01-25T13:22:55.057Z,101865.34
2023-01-25T13:28:27.543Z,101873.13
2023-01-25T13:33:35.923Z,101853.03
2023-01-25T13:38:38.687Z,101850.41
2023-01-25T13:43:43.791Z,101852.28
2023-01-25T13:48:58.883Z,101840.00
2023-01-25T13:54:01.673Z,101827.59
2023-01-25T13:59:04.571Z,101834.06
2023-01-25T14:04:12.602Z,101824.59
2023-01-25T14:09:20.734Z,101833.44
2023-01-25T14:14:27.550Z,101814.81
2023-01-25T14:19:33.442Z,101809.50
2023-01-25T14:24:36.267Z,101831.00
2023-01-25T14:34:48.174Z,101828.28
2023-01-25T14:39:52.838Z,101821.06
2023-01-25T14:44:55.731Z,101819.47
2023-01-25T14:50:33.933Z,101811.53
2023-01-25T14:55:38.002Z,101807.34
2023-01-25T15:00:41.154Z,101798.63
2023-01-25T15:05:48.460Z,101796.09
2023-01-25T15:10:53.211Z,101787.16
2023-01-25T15:15:58.552Z,101784.63
2023-01-25T15:21:02.810Z,101767.44
2023-01-25T15:26:14.903Z,101772.81
2023-01-25T15:31:19.375Z,101776.16
2023-01-25T15:36:23.946Z,101777.91
2023-01-25T15:41:26.818Z,101758.63
2023-01-25T15:46:33.527Z,101754.38
2023-01-25T15:51:37.638Z,101755.50
2023-01-25T15:56:42.865Z,101750.84
2023-01-25T16:01:45.920Z,101750.22
2023-01-25T16:06:52.257Z,101742.41
2023-01-25T16:11:56.660Z,101748.53
2023-01-25T16:17:02.320Z,101749.28
2023-01-25T16:22:07.639Z,101744.00
2023-01-25T16:27:16.793Z,101736.38
2023-01-25T16:32:19.797Z,101726.41
2023-01-25T16:37:24.033Z,101707.94
2023-01-25T16:42:26.979Z,101712.25
2023-01-25T16:47:29.943Z,101705.06
2023-01-25T16:52:34.063Z,101715.25
2023-01-25T16:57:37.056Z,101705.00
2023-01-25T17:02:46.825Z,101709.09
2023-01-25T17:08:01.307Z,101708.38
2023-01-25T17:13:05.868Z,101697.75
2023-01-25T17:18:08.604Z,101692.47
2023-01-25T17:23:12.726Z,101691.56
2023-01-25T17:28:15.571Z,101673.97
2023-01-25T17:33:19.078Z,101668.44
2023-01-25T17:38:24.566Z,101674.69
2023-01-25T17:43:27.982Z,101664.00
2023-01-25T17:48:30.833Z,101678.25
2023-01-25T17:53:34.970Z,101684.22
2023-01-25T17:58:39.180Z,101689.38
2023-01-25T18:03:42.139Z,101682.47
2023-01-25T18:08:48.937Z,101687.47
2023-01-25T18:13:54.296Z,101665.50
2023-01-25T18:18:58.781Z,101664.25
2023-01-25T18:24:08.610Z,101655.47
2023-01-25T18:29:37.554Z,101647.75
2023-01-25T18:34:40.470Z,101643.38
2023-01-25T18:39:44.701Z,101641.88
2023-01-25T18:44:49.068Z,101643.44
2023-01-25T18:49:53.707Z,101624.06
2023-01-25T18:54:57.888Z,101620.53
2023-01-25T19:00:00.757Z,101613.69
2023-01-25T19:05:03.517Z,101606.72
2023-01-25T19:10:08.478Z,101599.56
2023-01-25T19:15:12.237Z,101589.00
2023-01-25T19:20:15.277Z,101585.94
2023-01-25T19:25:19.373Z,101564.88
2023-01-25T19:30:22.333Z,101568.69
2023-01-25T19:35:25.132Z,101567.31
2023-01-25T19:40:29.401Z,101564.34
2023-01-25T19:45:32.678Z,101545.94
2023-01-25T19:50:35.479Z,101539.81
2023-01-25T19:55:39.572Z,101546.00
2023-01-25T20:00:42.357Z,101533.75
2023-01-25T20:05:45.279Z,101528.50
2023-01-25T20:10:49.447Z,101533.00
2023-01-25T20:15:52.417Z,101515.66
2023-01-25T20:20:56.973Z,101521.44
2023-01-25T20:26:03.666Z,101513.06
2023-01-25T20:31:06.607Z,101494.16
2023-01-25T20:36:09.838Z,101510.59
2023-01-25T20:41:15.660Z,101519.50
2023-01-25T20:46:20.042Z,101506.38
2023-01-25T20:51:23.995Z,101495.13
2023-01-25T20:56:28.716Z,101502.78
2023-01-25T21:01:36.541Z,101502.13
2023-01-25T21:06:39.586Z,101496.78
2023-01-25T21:11:43.776Z,101500.22
2023-01-25T21:16:46.653Z,101498.63
2023-01-25T21:21:49.491Z,101500.44
2023-01-25T21:26:53.744Z,101493.53
2023-01-25T21:31:58.880Z,101480.19
2023-01-25T21:37:01.688Z,101483.72
2023-01-25T21:42:05.974Z,101487.06
2023-01-25T21:47:28.758Z,101470.66
2023-01-25T21:52:31.475Z,101480.31
2023-01-25T21:57:35.882Z,101497.94
2023-01-25T22:02:38.758Z,101489.44
2023-01-25T22:07:41.626Z,101479.72
2023-01-25T22:12:50.563Z,101489.34
2023-01-25T22:17:53.340Z,101494.38
2023-01-25T22:22:56.127Z,101489.50
2023-01-25T22:28:01.211Z,101484.06
2023-01-25T22:33:03.974Z,101477.31
2023-01-25T22:38:06.764Z,101470.09
2023-01-25T22:43:10.913Z,101458.84
2023-01-25T22:48:13.694Z,101456.31
2023-01-25T22:53:16.525Z,101446.25
2023-01-25T22:58:20.646Z,101428.59
2023-01-25T23:03:23.471Z,101424.09
2023-01-25T23:08:26.359Z,101419.28
2023-01-25T23:13:30.767Z,101413.09
2023-01-25T23:18:54.101Z,101401.25
2023-01-25T23:23:57.766Z,101397.94
2023-01-25T23:29:01.945Z,101392.00
2023-01-25T23:34:06.359Z,101389.19
2023-01-25T23:39:12.205Z,101370.69
2023-01-25T23:44:16.626Z,101361.84
2023-01-25T23:49:19.392Z,101367.94
2023-01-25T23:54:22.228Z,101365.06
2023-01-25T23:59:26.380Z,101366.59
